Time;durP1;ratioP1;P1;durP2;ratioP2;P2;SDS_P1;SDS_P2;PMS_P1;PMS_P2;Temp;Humidity;BMP_temperature;BMP_pressure;BME280_temperature;BME280_humidity;BME280_pressure;Samples;Min_cycle;Max_cycle;Signal;HPM_P1;HPM_P2
2023/05/14 00:01:20;;;;;;;24.33;22.73;;;21.30;90.90;;;;;;5053662;28;20523;-56
2023/05/14 00:03:47;;;;;;;26.07;24.27;;;21.30;90.80;;;;;;5053561;28;20448;-53
2023/05/14 00:06:15;;;;;;;25.93;24.43;;;21.20;90.90;;;;;;5058364;28;20455;-56
2023/05/14 00:08:42;;;;;;;24.70;23.20;;;21.20;91.00;;;;;;5056157;28;20499;-56
2023/05/14 00:11:10;;;;;;;23.90;22.60;;;21.20;91.10;;;;;;5053695;28;20957;-52
2023/05/14 00:13:37;;;;;;;25.10;23.60;;;21.20;91.30;;;;;;5053406;28;20476;-55
2023/05/14 00:16:04;;;;;;;23.50;22.10;;;21.20;91.30;;;;;;5053463;28;20480;-52
2023/05/14 00:18:32;;;;;;;24.10;22.70;;;21.20;91.30;;;;;;5052670;28;20568;-51
2023/05/14 00:20:58;;;;;;;25.13;23.60;;;21.20;91.30;;;;;;5053443;28;20448;-54
2023/05/14 00:23:25;;;;;;;23.50;22.20;;;21.20;91.40;;;;;;5053156;28;20487;-54
2023/05/14 00:25:52;;;;;;;23.47;22.00;;;21.10;91.30;;;;;;5053234;28;20484;-53
2023/05/14 00:28:20;;;;;;;23.10;21.70;;;21.10;91.30;;;;;;5053202;28;20547;-52
2023/05/14 00:30:47;;;;;;;22.33;21.13;;;21.10;91.20;;;;;;5053232;28;20483;-52
2023/05/14 00:33:14;;;;;;;22.87;21.43;;;21.10;91.10;;;;;;5053084;28;20476;-51
2023/05/14 00:35:41;;;;;;;23.57;22.20;;;21.00;91.00;;;;;;5053142;28;20794;-53
2023/05/14 00:38:08;;;;;;;22.37;21.17;;;21.00;91.30;;;;;;5052616;28;20567;-53
2023/05/14 00:40:35;;;;;;;21.90;20.70;;;21.00;91.00;;;;;;5053214;28;20816;-54
2023/05/14 00:43:03;;;;;;;22.80;21.40;;;21.00;90.90;;;;;;5052823;28;20476;-52
2023/05/14 00:45:31;;;;;;;22.13;21.03;;;20.90;90.60;;;;;;5052887;28;20917;-55
2023/05/14 00:47:58;;;;;;;24.77;23.23;;;20.80;90.50;;;;;;5052880;28;20484;-52
2023/05/14 00:50:25;;;;;;;22.40;21.10;;;20.70;90.50;;;;;;5052835;28;20484;-54
2023/05/14 00:52:52;;;;;;;22.23;21.03;;;20.60;90.50;;;;;;5052661;28;20984;-51
2023/05/14 00:55:19;;;;;;;21.90;20.90;;;20.60;90.40;;;;;;5052769;28;20885;-51
2023/05/14 00:57:46;;;;;;;21.83;20.77;;;20.60;90.40;;;;;;5052796;28;20480;-53
2023/05/14 01:00:14;;;;;;;22.33;21.00;;;20.60;90.40;;;;;;5051267;28;20460;-52
2023/05/14 01:02:42;;;;;;;21.83;20.70;;;20.70;90.50;;;;;;5052575;28;20488;-54
2023/05/14 01:05:09;;;;;;;21.50;20.30;;;20.70;90.60;;;;;;5052474;28;20476;-52
2023/05/14 01:07:46;;;;;;;21.60;20.40;;;20.70;90.60;;;;;;5052582;28;20448;-52
2023/05/14 01:10:19;;;;;;;21.73;20.53;;;20.60;90.50;;;;;;5052502;28;20586;-51
2023/05/14 01:12:52;;;;;;;20.70;19.70;;;20.60;90.50;;;;;;5052305;28;20483;-55
2023/05/14 01:15:23;;;;;;;21.60;20.40;;;20.70;90.60;;;;;;5052328;28;20491;-55
2023/05/14 01:17:54;;;;;;;22.10;20.90;;;20.70;90.50;;;;;;5052446;28;20523;-54
2023/05/14 01:20:21;;;;;;;22.37;21.17;;;20.70;90.30;;;;;;5052017;28;20547;-52
2023/05/14 01:22:50;;;;;;;21.50;20.50;;;20.70;90.20;;;;;;5051990;28;20864;-52
2023/05/14 01:25:17;;;;;;;19.97;19.03;;;20.60;90.10;;;;;;5052168;28;20539;-55
2023/05/14 01:27:52;;;;;;;21.30;20.00;;;20.60;90.10;;;;;;5052088;28;20468;-52
2023/05/14 01:30:24;;;;;;;21.83;20.63;;;20.60;90.10;;;;;;5051694;28;20559;-54
2023/05/14 01:32:54;;;;;;;20.97;19.80;;;20.60;90.10;;;;;;5051968;28;20471;-52
2023/05/14 01:35:25;;;;;;;21.57;20.37;;;20.60;90.00;;;;;;5053948;28;20440;-58
2023/05/14 01:37:55;;;;;;;21.93;20.83;;;20.60;89.70;;;;;;5057293;28;20480;-59
2023/05/14 01:40:23;;;;;;;20.83;19.80;;;20.50;89.40;;;;;;5051845;28;20480;-52
2023/05/14 01:42:51;;;;;;;21.13;20.07;;;20.60;89.20;;;;;;5051811;28;20472;-52
2023/05/14 01:45:18;;;;;;;20.70;19.70;;;20.50;88.90;;;;;;5051829;28;20930;-53
2023/05/14 01:47:45;;;;;;;21.20;20.10;;;20.50;88.70;;;;;;5051829;28;20460;-57
2023/05/14 01:50:11;;;;;;;20.40;19.40;;;20.40;88.40;;;;;;5051758;28;20945;-52
2023/05/14 01:52:38;;;;;;;21.00;20.00;;;20.50;88.40;;;;;;5051679;28;20448;-51
2023/05/14 01:55:08;;;;;;;21.10;20.10;;;20.50;88.30;;;;;;5051663;28;20479;-52
2023/05/14 01:57:35;;;;;;;20.80;19.70;;;20.40;88.00;;;;;;5051773;28;20474;-53
2023/05/14 02:00:02;;;;;;;22.70;21.60;;;20.40;87.90;;;;;;5051246;28;20671;-54
2023/05/14 02:02:29;;;;;;;22.60;21.40;;;20.40;87.60;;;;;;5051342;28;20452;-55
2023/05/14 02:04:56;;;;;;;21.10;20.00;;;20.40;87.50;;;;;;5051511;28;20479;-51
2023/05/14 02:07:23;;;;;;;21.03;19.93;;;20.40;87.40;;;;;;5051420;28;20480;-51
2023/05/14 02:09:50;;;;;;;21.57;20.37;;;20.30;87.20;;;;;;5051437;28;20882;-51
2023/05/14 02:12:18;;;;;;;22.80;21.60;;;20.30;87.20;;;;;;5051331;28;20476;-53
2023/05/14 02:14:45;;;;;;;21.70;20.60;;;20.30;87.00;;;;;;5051243;28;20483;-52
2023/05/14 02:17:14;;;;;;;22.40;21.10;;;20.30;86.90;;;;;;5051547;28;20519;-54
2023/05/14 02:19:41;;;;;;;22.03;20.97;;;20.30;86.90;;;;;;5050975;28;20476;-51
2023/05/14 02:22:08;;;;;;;22.43;21.20;;;20.30;86.80;;;;;;5051533;28;20486;-53
2023/05/14 02:24:35;;;;;;;21.10;20.10;;;20.30;86.90;;;;;;5051082;28;20484;-53
2023/05/14 02:27:02;;;;;;;22.27;21.13;;;20.30;86.80;;;;;;5051042;28;20476;-54
2023/05/14 02:29:30;;;;;;;22.70;21.37;;;20.20;86.40;;;;;;5051187;28;20496;-53
2023/05/14 02:31:57;;;;;;;22.60;21.40;;;20.20;86.30;;;;;;5051366;28;20491;-53
2023/05/14 02:34:24;;;;;;;21.97;20.97;;;20.20;86.10;;;;;;5050784;28;20984;-56
2023/05/14 02:36:51;;;;;;;22.23;21.03;;;20.20;86.00;;;;;;5050990;28;20882;-51
2023/05/14 02:39:18;;;;;;;23.00;21.80;;;20.20;85.90;;;;;;5051151;28;20922;-52
2023/05/14 02:41:45;;;;;;;21.83;20.63;;;20.10;85.70;;;;;;5055290;28;20476;-55
2023/05/14 02:44:11;;;;;;;23.13;21.87;;;20.10;85.70;;;;;;5055116;28;20595;-53
2023/05/14 02:46:40;;;;;;;21.90;20.63;;;20.10;85.80;;;;;;5054815;28;20532;-55
2023/05/14 02:49:07;;;;;;;22.83;21.53;;;20.10;85.70;;;;;;5055033;28;20471;-55
2023/05/14 02:51:33;;;;;;;22.13;21.07;;;20.10;85.50;;;;;;5055142;28;20942;-53
2023/05/14 02:54:00;;;;;;;23.40;22.10;;;20.10;85.50;;;;;;5054907;28;20498;-56
2023/05/14 02:56:27;;;;;;;21.27;20.27;;;20.00;85.30;;;;;;5054764;28;20476;-52
2023/05/14 02:58:54;;;;;;;22.07;20.90;;;20.00;85.30;;;;;;5054884;28;20520;-53
2023/05/14 03:01:21;;;;;;;21.17;20.17;;;20.00;85.40;;;;;;5054997;28;20476;-55
2023/05/14 03:03:49;;;;;;;21.60;20.13;;;20.00;85.20;;;;;;5054759;28;20479;-53
2023/05/14 03:06:16;;;;;;;23.07;21.80;;;19.90;85.20;;;;;;5057383;28;20444;-58
2023/05/14 03:08:43;;;;;;;21.87;20.77;;;19.90;85.10;;;;;;5060056;28;20502;-58
2023/05/14 03:11:10;;;;;;;21.67;20.40;;;20.00;85.00;;;;;;5054944;28;20484;-52
2023/05/14 03:13:37;;;;;;;23.23;21.80;;;19.90;84.70;;;;;;5054476;28;20448;-56
2023/05/14 03:16:04;;;;;;;23.37;22.07;;;19.90;84.70;;;;;;5054419;28;20889;-54
2023/05/14 03:18:33;;;;;;;21.73;20.53;;;19.90;84.90;;;;;;5054461;28;20476;-55
2023/05/14 03:21:02;;;;;;;21.30;20.20;;;19.90;85.00;;;;;;5054615;28;20891;-54
2023/05/14 03:23:30;;;;;;;21.53;20.53;;;19.90;85.00;;;;;;5054436;28;20455;-56
2023/05/14 03:25:57;;;;;;;21.67;20.47;;;19.90;84.90;;;;;;5054715;28;20543;-55
2023/05/14 03:28:24;;;;;;;20.07;19.07;;;19.90;84.70;;;;;;5054398;28;20972;-52
2023/05/14 03:30:51;;;;;;;23.13;21.67;;;19.80;84.50;;;;;;5054505;28;20449;-52
2023/05/14 03:33:18;;;;;;;20.37;19.30;;;19.80;84.40;;;;;;5054337;28;20864;-52
2023/05/14 03:35:45;;;;;;;20.67;19.67;;;19.80;84.40;;;;;;5054130;28;20976;-53
2023/05/14 03:38:13;;;;;;;20.73;19.63;;;19.80;84.20;;;;;;5054310;28;20517;-55
2023/05/14 03:40:40;;;;;;;20.80;19.77;;;19.80;84.00;;;;;;5054037;28;20579;-51
2023/05/14 03:43:07;;;;;;;20.50;19.50;;;19.80;84.10;;;;;;5054003;28;20502;-52
2023/05/14 03:45:34;;;;;;;20.23;19.13;;;19.80;84.40;;;;;;5054024;28;20819;-52
2023/05/14 03:48:01;;;;;;;20.80;19.80;;;19.70;84.10;;;;;;5054051;28;20476;-52
2023/05/14 03:50:28;;;;;;;20.23;19.23;;;19.70;83.80;;;;;;5054077;28;20475;-53
2023/05/14 03:52:55;;;;;;;19.87;18.97;;;19.70;83.70;;;;;;5053049;28;20530;-51
2023/05/14 03:55:23;;;;;;;20.07;19.17;;;19.70;83.70;;;;;;5053836;28;20483;-55
2023/05/14 03:57:50;;;;;;;21.20;20.00;;;19.80;83.70;;;;;;5053552;28;20480;-54
2023/05/14 04:00:18;;;;;;;19.50;18.60;;;19.70;84.10;;;;;;5053770;28;20520;-51
2023/05/14 04:02:44;;;;;;;21.27;20.17;;;19.80;84.50;;;;;;5053594;28;20503;-54
2023/05/14 04:05:11;;;;;;;20.90;19.80;;;19.80;84.20;;;;;;5053698;28;20536;-51
2023/05/14 04:07:38;;;;;;;20.93;19.83;;;19.80;84.10;;;;;;5053864;28;20875;-55
2023/05/14 04:10:06;;;;;;;20.53;19.53;;;19.80;83.90;;;;;;5053599;28;20496;-53
2023/05/14 04:12:34;;;;;;;21.37;20.37;;;19.80;83.70;;;;;;5053463;28;20476;-52
2023/05/14 04:15:01;;;;;;;20.17;19.27;;;19.80;83.60;;;;;;5053504;28;20480;-52
2023/05/14 04:17:28;;;;;;;21.27;20.07;;;19.80;83.70;;;;;;5053284;28;20476;-52
2023/05/14 04:19:55;;;;;;;20.90;19.87;;;19.80;83.70;;;;;;5053880;28;20530;-55
2023/05/14 04:22:22;;;;;;;21.40;20.40;;;19.80;83.70;;;;;;5054074;28;20480;-53
2023/05/14 04:24:49;;;;;;;20.30;19.30;;;19.80;83.80;;;;;;5054122;28;20503;-54
2023/05/14 04:27:21;;;;;;;20.83;20.03;;;19.80;84.10;;;;;;5054320;28;20486;-55
2023/05/14 04:29:49;;;;;;;21.80;20.60;;;19.80;84.30;;;;;;5053982;28;20962;-54
2023/05/14 04:32:17;;;;;;;20.03;19.23;;;19.80;84.60;;;;;;5054338;28;20483;-51
2023/05/14 04:34:45;;;;;;;21.80;20.60;;;19.90;85.10;;;;;;5053657;28;20459;-53
2023/05/14 04:37:12;;;;;;;21.60;20.50;;;19.80;86.00;;;;;;5053681;28;20448;-52
2023/05/14 04:39:39;;;;;;;21.53;20.53;;;19.80;86.40;;;;;;5054641;28;20488;-58
2023/05/14 04:42:07;;;;;;;22.73;21.60;;;19.80;86.60;;;;;;5050405;28;20507;-55
2023/05/14 04:44:35;;;;;;;26.70;25.40;;;19.90;89.10;;;;;;5045415;28;20281;-55
2023/05/14 04:47:03;;;;;;;26.50;24.97;;;19.90;88.30;;;;;;5049851;28;20818;-53
2023/05/14 04:49:32;;;;;;;24.00;23.00;;;20.00;88.30;;;;;;5041792;28;20522;-56
2023/05/14 04:51:59;;;;;;;23.43;22.40;;;20.10;88.10;;;;;;5052924;28;20949;-58
2023/05/14 04:54:26;;;;;;;24.37;23.27;;;20.20;87.80;;;;;;5052333;28;20476;-58
2023/05/14 04:56:54;;;;;;;24.00;22.80;;;20.30;88.40;;;;;;5048600;28;20468;-52
2023/05/14 04:59:21;;;;;;;26.50;25.30;;;20.20;87.10;;;;;;5046981;28;20472;-53
2023/05/14 05:01:50;;;;;;;27.47;26.07;;;20.30;88.00;;;;;;5038116;28;20500;-55
2023/05/14 05:04:18;;;;;;;26.47;25.17;;;20.30;87.60;;;;;;5042461;28;20457;-53
2023/05/14 05:06:45;;;;;;;26.70;25.50;;;20.40;87.10;;;;;;5047901;28;20448;-51
2023/05/14 05:09:12;;;;;;;26.23;25.13;;;20.50;87.80;;;;;;5048075;28;20556;-53
2023/05/14 05:11:39;;;;;;;24.53;23.43;;;20.50;86.90;;;;;;5052533;28;20436;-57
2023/05/14 05:14:06;;;;;;;23.27;22.27;;;20.60;87.30;;;;;;5050780;28;20811;-56
2023/05/14 05:16:33;;;;;;;23.30;22.30;;;20.70;87.40;;;;;;5050806;28;20471;-58
2023/05/14 05:19:00;;;;;;;25.00;23.47;;;20.70;87.20;;;;;;5046923;28;20511;-53
2023/05/14 05:21:28;;;;;;;24.73;23.63;;;20.70;87.40;;;;;;5033689;28;20512;-52
2023/05/14 05:23:55;;;;;;;24.50;23.40;;;20.70;86.50;;;;;;5037582;28;20451;-53
2023/05/14 05:26:22;;;;;;;23.63;22.63;;;20.80;86.70;;;;;;5052502;28;20448;-54
2023/05/14 05:28:49;;;;;;;24.33;23.07;;;20.80;86.90;;;;;;5051657;28;20926;-56
2023/05/14 05:31:16;;;;;;;24.37;23.37;;;20.80;87.20;;;;;;5052196;28;20490;-52
2023/05/14 05:33:43;;;;;;;22.33;21.43;;;20.80;86.30;;;;;;5046526;28;20495;-51
2023/05/14 05:36:10;;;;;;;23.37;22.47;;;20.80;87.30;;;;;;5044853;28;20476;-55
2023/05/14 05:38:38;;;;;;;22.70;21.73;;;20.90;87.10;;;;;;5046297;28;21036;-54
2023/05/14 05:41:06;;;;;;;24.07;23.07;;;20.90;87.00;;;;;;5052024;28;20563;-55
2023/05/14 05:43:33;;;;;;;24.23;23.23;;;20.90;86.50;;;;;;5034995;28;20768;-52
2023/05/14 05:46:01;;;;;;;24.50;23.50;;;20.90;86.20;;;;;;5045059;28;20441;-53
2023/05/14 05:48:28;;;;;;;23.20;22.30;;;20.90;86.00;;;;;;5034081;28;20503;-52
2023/05/14 05:50:55;;;;;;;23.50;22.43;;;21.00;85.40;;;;;;5039101;28;20445;-56
2023/05/14 05:53:21;;;;;;;24.57;23.40;;;21.00;85.10;;;;;;5051666;28;20482;-59
2023/05/14 05:55:50;;;;;;;24.60;23.57;;;21.00;85.30;;;;;;5043932;28;20800;-57
2023/05/14 05:58:18;;;;;;;25.10;24.00;;;21.00;85.30;;;;;;5051525;28;20440;-51
2023/05/14 06:00:45;;;;;;;25.73;24.63;;;21.00;86.10;;;;;;5036434;28;20509;-55
2023/05/14 06:03:13;;;;;;;25.77;24.77;;;21.10;86.10;;;;;;5053645;28;20501;-58
2023/05/14 06:05:40;;;;;;;25.80;24.70;;;21.00;85.20;;;;;;5036643;28;20485;-57
2023/05/14 06:08:07;;;;;;;26.03;24.97;;;21.00;85.20;;;;;;5049271;28;20441;-55
2023/05/14 06:10:35;;;;;;;25.37;24.37;;;21.00;85.50;;;;;;5042761;28;20447;-59
2023/05/14 06:13:03;;;;;;;25.50;24.43;;;21.00;85.50;;;;;;5051850;28;20444;-57
2023/05/14 06:15:30;;;;;;;25.70;24.60;;;21.00;85.70;;;;;;5053258;28;20890;-59
2023/05/14 06:17:57;;;;;;;24.30;23.20;;;21.00;85.70;;;;;;5057419;28;20879;-58
2023/05/14 06:20:24;;;;;;;27.13;25.70;;;21.00;86.00;;;;;;5038116;28;20485;-58
2023/05/14 06:22:51;;;;;;;25.67;24.57;;;21.10;86.10;;;;;;5050608;28;20483;-58
2023/05/14 06:25:18;;;;;;;26.53;25.23;;;21.10;85.90;;;;;;5038654;28;20472;-56
2023/05/14 06:27:44;;;;;;;27.00;25.67;;;21.10;86.00;;;;;;5052777;28;20871;-57
2023/05/14 06:30:14;;;;;;;24.70;23.70;;;21.20;87.20;;;;;;5051590;28;20523;-57
2023/05/14 06:32:41;;;;;;;26.93;25.83;;;21.30;86.50;;;;;;5051575;28;20456;-56
2023/05/14 06:35:09;;;;;;;25.23;24.23;;;21.30;86.10;;;;;;5051182;28;20476;-56
2023/05/14 06:37:36;;;;;;;24.90;23.90;;;21.30;86.90;;;;;;5052608;28;20475;-54
2023/05/14 06:40:04;;;;;;;25.00;23.90;;;21.30;86.20;;;;;;5051453;28;20523;-56
2023/05/14 06:42:30;;;;;;;25.00;23.90;;;21.40;86.60;;;;;;5051881;28;20452;-55
2023/05/14 06:44:57;;;;;;;24.33;23.33;;;21.40;86.60;;;;;;5051476;28;20488;-56
2023/05/14 06:47:26;;;;;;;25.80;24.60;;;21.40;86.60;;;;;;5051774;28;20516;-57
2023/05/14 06:49:52;;;;;;;25.30;24.13;;;21.50;87.30;;;;;;5051937;28;20495;-56
2023/05/14 06:52:19;;;;;;;25.03;23.93;;;21.40;86.50;;;;;;5051297;28;20486;-53
2023/05/14 06:54:46;;;;;;;25.00;23.80;;;21.50;86.40;;;;;;5051541;28;20486;-53
2023/05/14 06:57:13;;;;;;;26.70;25.43;;;21.50;86.10;;;;;;5051906;28;20930;-57
2023/05/14 06:59:40;;;;;;;26.37;25.07;;;21.60;86.20;;;;;;5052469;28;20536;-53
2023/05/14 07:02:07;;;;;;;26.20;24.90;;;21.60;86.60;;;;;;5035091;28;20508;-54
2023/05/14 07:04:35;;;;;;;25.80;24.60;;;21.60;86.00;;;;;;5051704;28;20476;-54
2023/05/14 07:07:02;;;;;;;26.50;25.30;;;21.60;86.30;;;;;;5051841;28;20487;-55
2023/05/14 07:09:29;;;;;;;26.70;25.60;;;21.60;86.70;;;;;;5051814;28;20805;-53
2023/05/14 07:11:56;;;;;;;26.03;24.93;;;21.60;86.50;;;;;;5051740;28;20480;-53
2023/05/14 07:14:23;;;;;;;26.60;25.60;;;21.70;86.40;;;;;;5051744;28;20468;-57
2023/05/14 07:16:50;;;;;;;28.57;27.07;;;21.70;86.40;;;;;;5051257;28;20482;-58
2023/05/14 07:19:16;;;;;;;26.37;25.20;;;21.60;86.10;;;;;;5050990;28;20500;-59
2023/05/14 07:21:45;;;;;;;26.13;24.83;;;21.60;85.90;;;;;;5051272;28;20510;-56
2023/05/14 07:24:12;;;;;;;27.00;25.70;;;21.70;86.10;;;;;;5051917;28;20479;-57
2023/05/14 07:26:39;;;;;;;27.93;26.33;;;21.60;86.70;;;;;;5051574;28;20476;-51
2023/05/14 07:29:06;;;;;;;27.07;25.73;;;21.70;87.10;;;;;;5055060;28;20491;-53
2023/05/14 07:31:32;;;;;;;26.07;24.80;;;21.70;88.30;;;;;;5055643;28;20472;-56
2023/05/14 07:33:59;;;;;;;26.20;25.10;;;21.70;86.70;;;;;;5056280;28;20476;-53
2023/05/14 07:36:26;;;;;;;26.30;25.10;;;21.70;86.40;;;;;;5055526;28;20472;-53
2023/05/14 07:38:55;;;;;;;25.80;24.70;;;21.70;87.20;;;;;;5055099;28;20495;-55
2023/05/14 07:41:21;;;;;;;27.20;26.00;;;21.80;86.90;;;;;;5055517;28;20563;-53
2023/05/14 07:43:48;;;;;;;26.43;25.13;;;21.80;86.80;;;;;;5054453;28;20452;-54
2023/05/14 07:46:15;;;;;;;26.47;25.37;;;21.80;86.70;;;;;;5055426;28;20999;-52
2023/05/14 07:48:42;;;;;;;25.97;24.57;;;21.80;87.40;;;;;;5054421;28;20478;-59
2023/05/14 07:51:10;;;;;;;26.50;25.30;;;21.80;87.70;;;;;;5055315;28;20882;-54
2023/05/14 07:53:37;;;;;;;25.20;24.07;;;21.80;86.70;;;;;;5056869;28;20447;-55
2023/05/14 07:56:06;;;;;;;28.43;27.13;;;21.90;86.50;;;;;;5056899;28;20483;-53
2023/05/14 07:58:34;;;;;;;28.23;26.70;;;21.80;86.80;;;;;;5056568;28;20479;-57
2023/05/14 08:01:05;;;;;;;25.35;24.05;;;21.70;87.40;;;;;;5057458;28;20452;-56
2023/05/14 08:03:33;;;;;;;27.37;25.90;;;21.80;87.90;;;;;;5059753;28;20216;-54
2023/05/14 08:05:59;;;;;;;25.57;24.37;;;21.90;87.40;;;;;;5055775;28;20448;-52
2023/05/14 08:08:27;;;;;;;27.13;25.80;;;21.90;86.90;;;;;;5056256;28;20810;-58
2023/05/14 08:10:54;;;;;;;26.20;25.10;;;21.90;87.10;;;;;;5057695;28;20440;-58
2023/05/14 08:13:22;;;;;;;26.83;25.63;;;21.90;87.00;;;;;;5057334;28;20458;-59
2023/05/14 08:15:50;;;;;;;24.77;23.73;;;22.00;87.10;;;;;;5057629;28;20494;-57
2023/05/14 08:18:17;;;;;;;27.60;25.70;;;21.90;87.00;;;;;;5056488;28;20468;-54
2023/05/14 08:20:44;;;;;;;24.67;23.30;;;21.90;87.20;;;;;;5041127;28;20619;-55
2023/05/14 08:23:10;;;;;;;25.27;24.07;;;22.00;87.10;;;;;;5050704;28;20469;-52
2023/05/14 08:25:38;;;;;;;23.60;22.47;;;22.00;87.10;;;;;;5041734;28;20864;-54
2023/05/14 08:28:05;;;;;;;25.33;24.13;;;22.00;86.90;;;;;;5053172;28;20477;-55
2023/05/14 08:30:33;;;;;;;24.57;23.47;;;22.00;87.00;;;;;;5037476;28;20449;-56
2023/05/14 08:33:00;;;;;;;24.00;23.00;;;22.10;87.20;;;;;;5035460;28;20869;-59
2023/05/14 08:35:27;;;;;;;24.73;23.80;;;22.10;87.50;;;;;;5034629;28;20815;-52
2023/05/14 08:37:55;;;;;;;24.93;23.63;;;22.10;86.70;;;;;;5034374;28;20527;-56
2023/05/14 08:40:22;;;;;;;23.60;22.60;;;22.10;87.50;;;;;;5048603;28;20553;-57
2023/05/14 08:42:52;;;;;;;24.20;23.20;;;22.20;87.40;;;;;;5050493;28;20943;-53
2023/05/14 08:45:20;;;;;;;23.17;22.17;;;22.10;86.90;;;;;;5047016;28;20483;-50
2023/05/14 08:47:50;;;;;;;22.50;21.70;;;22.10;87.80;;;;;;5038755;28;20441;-53
2023/05/14 08:50:18;;;;;;;23.57;22.67;;;22.10;87.10;;;;;;5054430;28;20844;-55
2023/05/14 08:52:45;;;;;;;23.40;22.40;;;22.10;87.10;;;;;;5055173;28;20453;-52
2023/05/14 08:55:13;;;;;;;22.80;21.80;;;22.10;87.10;;;;;;5054954;28;20487;-53
2023/05/14 08:57:40;;;;;;;23.50;22.50;;;22.20;87.10;;;;;;5054838;28;20472;-49
2023/05/14 09:00:11;;;;;;;23.90;22.90;;;22.20;87.00;;;;;;5053560;28;20837;-52
2023/05/14 09:02:41;;;;;;;24.40;23.37;;;22.20;87.00;;;;;;5054755;28;20551;-53
2023/05/14 09:05:11;;;;;;;23.30;22.37;;;22.20;86.80;;;;;;5055364;28;20999;-54
2023/05/14 09:07:38;;;;;;;23.63;22.60;;;22.10;86.70;;;;;;5055174;28;20450;-52
2023/05/14 09:10:07;;;;;;;24.53;23.30;;;22.20;86.80;;;;;;5054513;28;20522;-54
2023/05/14 09:12:34;;;;;;;23.23;22.33;;;22.10;86.80;;;;;;5054148;28;20495;-51
2023/05/14 09:15:01;;;;;;;25.10;24.00;;;22.10;86.80;;;;;;5052694;28;20547;-52
2023/05/14 09:17:28;;;;;;;22.90;22.00;;;22.20;86.90;;;;;;5052645;28;20486;-55
2023/05/14 09:19:56;;;;;;;23.70;22.53;;;22.10;86.90;;;;;;5051984;28;20558;-54
2023/05/14 09:22:24;;;;;;;24.23;23.33;;;22.10;86.90;;;;;;5052261;28;20920;-51
2023/05/14 09:25:03;;;;;;;26.87;25.77;;;22.10;87.30;;;;;;5052314;28;20501;-52
2023/05/14 09:27:31;;;;;;;23.97;23.00;;;22.20;87.10;;;;;;5052029;28;20476;-54
2023/05/14 09:30:06;;;;;;;24.23;23.23;;;22.20;87.00;;;;;;5052524;28;20903;-50
2023/05/14 09:32:37;;;;;;;24.27;23.27;;;22.20;87.00;;;;;;5043480;28;20440;-51
2023/05/14 09:35:16;;;;;;;23.67;22.70;;;22.20;87.10;;;;;;5052041;28;20476;-51
2023/05/14 09:37:53;;;;;;;24.03;23.13;;;22.20;87.10;;;;;;5051595;28;20448;-52
2023/05/14 09:40:21;;;;;;;24.03;23.13;;;22.20;87.20;;;;;;5046721;28;20515;-53
2023/05/14 09:42:48;;;;;;;23.40;22.50;;;22.30;87.70;;;;;;5038731;28;20516;-51
2023/05/14 09:45:16;;;;;;;23.93;23.03;;;22.30;87.40;;;;;;5052135;28;20816;-51
2023/05/14 09:47:43;;;;;;;23.43;22.33;;;22.30;86.90;;;;;;5039960;28;20485;-50
2023/05/14 09:50:11;;;;;;;22.93;22.03;;;22.30;87.00;;;;;;5045692;28;20526;-49
2023/05/14 09:52:39;;;;;;;23.00;22.10;;;22.30;87.10;;;;;;5036426;28;20445;-52
2023/05/14 09:55:08;;;;;;;23.03;22.03;;;22.30;87.10;;;;;;5052015;28;20440;-50
2023/05/14 09:57:35;;;;;;;23.80;22.80;;;22.30;87.10;;;;;;5049001;28;20472;-51
2023/05/14 10:00:02;;;;;;;22.80;21.90;;;22.30;87.80;;;;;;5031761;28;20465;-55
2023/05/14 10:02:36;;;;;;;23.00;22.20;;;22.40;87.70;;;;;;5048150;28;20473;-49
2023/05/14 10:05:06;;;;;;;22.37;21.53;;;22.50;87.40;;;;;;5032047;28;20463;-51
2023/05/14 10:07:39;;;;;;;21.40;20.53;;;22.50;87.00;;;;;;5033808;28;20566;-54
2023/05/14 10:10:19;;;;;;;23.93;22.83;;;22.40;86.70;;;;;;5051088;28;20460;-51
2023/05/14 10:13:00;;;;;;;23.63;22.63;;;22.50;87.20;;;;;;5036531;28;20483;-56
2023/05/14 10:15:37;;;;;;;23.00;22.17;;;22.50;86.70;;;;;;5051661;28;20436;-51
2023/05/14 10:18:08;;;;;;;22.63;21.73;;;22.60;86.50;;;;;;5051044;28;20850;-51
2023/05/14 10:20:41;;;;;;;19.40;18.60;;;22.60;85.90;;;;;;5048203;28;20498;-55
2023/05/14 10:23:08;;;;;;;21.90;21.10;;;22.60;85.50;;;;;;5031563;28;20256;-53
2023/05/14 10:25:59;;;;;;;22.67;21.87;;;22.60;85.90;;;;;;5042138;28;20455;-53
2023/05/14 10:31:10;;;;;;;23.77;22.67;;;22.70;84.70;;;;;;5051180;28;20444;-52
2023/05/14 10:33:49;;;;;;;22.60;21.70;;;22.60;85.60;;;;;;5051260;28;20506;-54
2023/05/14 10:36:16;;;;;;;22.63;21.67;;;22.60;85.20;;;;;;5051670;28;20444;-51
2023/05/14 10:38:43;;;;;;;22.07;21.27;;;22.70;86.50;;;;;;5033227;28;20543;-51
2023/05/14 10:41:13;;;;;;;22.47;21.67;;;22.70;86.40;;;;;;5031430;28;20484;-51
2023/05/14 10:43:41;;;;;;;23.03;22.03;;;22.70;85.90;;;;;;5031520;28;20464;-55
2023/05/14 10:46:10;;;;;;;22.10;21.30;;;22.70;85.40;;;;;;5031785;28;20481;-57
2023/05/14 10:48:40;;;;;;;22.73;21.83;;;22.70;85.20;;;;;;5031466;28;20472;-58
2023/05/14 10:51:08;;;;;;;23.67;22.47;;;22.60;86.20;;;;;;5031527;28;20487;-53
2023/05/14 10:53:36;;;;;;;22.60;21.70;;;22.70;86.10;;;;;;5031392;28;20862;-53
2023/05/14 10:56:04;;;;;;;24.33;23.40;;;22.70;86.70;;;;;;5031859;28;20887;-52
2023/05/14 10:58:35;;;;;;;23.17;22.27;;;22.60;86.20;;;;;;5031609;28;20552;-54
2023/05/14 11:01:04;;;;;;;22.47;21.47;;;22.60;85.60;;;;;;5032389;28;20973;-55
2023/05/14 11:03:32;;;;;;;23.63;22.63;;;22.60;84.20;;;;;;5035463;28;20477;-54
2023/05/14 11:06:03;;;;;;;23.40;22.40;;;22.60;84.30;;;;;;5035495;28;20532;-54
2023/05/14 11:08:32;;;;;;;22.17;21.27;;;22.60;84.20;;;;;;5035266;28;20902;-56
2023/05/14 11:11:00;;;;;;;22.13;21.20;;;22.60;84.20;;;;;;5035166;28;20472;-52
2023/05/14 11:13:27;;;;;;;22.70;21.90;;;22.60;84.60;;;;;;5038288;28;20983;-55
2023/05/14 11:15:57;;;;;;;23.30;22.20;;;22.70;84.60;;;;;;5044116;28;20448;-52
2023/05/14 11:18:28;;;;;;;22.47;21.57;;;22.80;84.30;;;;;;5042574;28;20496;-54
2023/05/14 11:20:57;;;;;;;22.17;21.33;;;22.80;83.90;;;;;;5053358;28;20444;-50
2023/05/14 11:23:25;;;;;;;21.87;21.07;;;22.80;83.80;;;;;;5048207;28;20517;-55
2023/05/14 11:25:52;;;;;;;23.80;22.90;;;22.80;83.50;;;;;;5042339;28;20444;-55
2023/05/14 11:28:28;;;;;;;23.00;22.20;;;22.80;83.50;;;;;;5052375;28;20471;-65
2023/05/14 11:30:57;;;;;;;22.67;21.87;;;22.80;83.30;;;;;;5035232;28;20482;-51
2023/05/14 11:33:27;;;;;;;22.30;21.57;;;22.90;83.30;;;;;;5040741;28;20444;-54
2023/05/14 11:35:54;;;;;;;22.97;21.97;;;22.90;83.10;;;;;;5054631;28;20475;-51
2023/05/14 11:38:21;;;;;;;22.30;21.50;;;22.90;82.70;;;;;;5053351;28;20468;-54
2023/05/14 11:40:52;;;;;;;22.90;22.10;;;22.90;82.20;;;;;;5038649;28;20958;-54
2023/05/14 11:43:22;;;;;;;22.27;21.47;;;23.00;82.30;;;;;;5035913;28;20477;-53
2023/05/14 11:45:51;;;;;;;21.93;21.13;;;22.90;81.80;;;;;;5050864;28;20440;-58
2023/05/14 11:48:19;;;;;;;22.20;21.40;;;22.90;81.60;;;;;;5049047;28;20445;-53
2023/05/14 11:50:47;;;;;;;21.70;20.90;;;22.90;81.10;;;;;;5038411;28;20449;-56
2023/05/14 11:53:17;;;;;;;21.93;21.03;;;22.90;80.50;;;;;;5038273;28;20488;-57
2023/05/14 11:55:45;;;;;;;22.07;21.27;;;22.90;79.90;;;;;;5049483;28;20452;-52
2023/05/14 11:58:12;;;;;;;22.30;21.50;;;22.90;80.00;;;;;;5053486;28;20967;-56
2023/05/14 12:00:40;;;;;;;22.70;21.90;;;22.80;79.00;;;;;;5038659;28;20819;-52
2023/05/14 12:03:09;;;;;;;22.30;21.50;;;22.80;79.00;;;;;;5049062;28;20507;-54
2023/05/14 12:05:39;;;;;;;22.73;21.87;;;22.80;77.60;;;;;;5036787;28;20500;-54
2023/05/14 12:08:20;;;;;;;21.83;20.93;;;22.80;76.30;;;;;;5048657;28;20488;-59
2023/05/14 12:10:47;;;;;;;20.80;20.10;;;22.80;73.70;;;;;;5035178;28;20989;-50
2023/05/14 12:13:16;;;;;;;21.50;20.70;;;22.80;75.60;;;;;;5033198;28;20469;-54
2023/05/14 12:15:45;;;;;;;22.57;21.77;;;22.90;73.90;;;;;;5051358;28;20452;-51
2023/05/14 12:18:12;;;;;;;21.30;20.60;;;22.90;73.40;;;;;;5053666;28;20555;-52
2023/05/14 12:20:46;;;;;;;21.43;20.63;;;22.80;73.70;;;;;;5036712;28;20480;-52
2023/05/14 12:23:14;;;;;;;21.97;21.17;;;22.80;74.90;;;;;;5035704;28;20571;-59
2023/05/14 12:25:49;;;;;;;22.30;21.50;;;22.90;74.90;;;;;;5047680;28;20461;-53
2023/05/14 12:28:16;;;;;;;21.30;20.60;;;22.80;73.70;;;;;;5035971;28;20508;-55
2023/05/14 12:30:43;;;;;;;21.00;20.20;;;22.90;73.70;;;;;;5046251;28;21014;-52
2023/05/14 12:33:10;;;;;;;21.60;20.90;;;23.00;72.20;;;;;;5033547;28;20785;-55
2023/05/14 12:35:37;;;;;;;18.60;17.90;;;22.90;70.50;;;;;;5046103;28;20501;-53